Time;durP1;ratioP1;P1;durP2;ratioP2;P2;SDS_P1;SDS_P2;PMS_P1;PMS_P2;Temp;Humidity;BMP_temperature;BMP_pressure;BME280_temperature;BME280_humidity;BME280_pressure;Samples;Min_cycle;Max_cycle;Signal;HPM_P1;HPM_P2
2023/09/10 00:00:33;;;;;;;29.67;20.42;;;;;;;18.14;100.00;100703.75;5093245;28;20046;-80
2023/09/10 00:03:01;;;;;;;26.40;20.25;;;;;;;18.13;100.00;100710.84;5093221;28;20114;-80
2023/09/10 00:05:32;;;;;;;26.10;18.65;;;;;;;18.11;100.00;100702.72;5092075;28;20028;-80
2023/09/10 00:08:00;;;;;;;23.77;20.02;;;;;;;18.08;100.00;100706.69;5093470;28;20073;-79
2023/09/10 00:10:39;;;;;;;30.73;21.55;;;;;;;18.05;100.00;100692.50;5091915;28;20065;-80
2023/09/10 00:13:05;;;;;;;32.47;20.40;;;;;;;18.05;100.00;100699.09;5091715;28;20038;-80
2023/09/10 00:15:30;;;;;;;31.98;20.33;;;;;;;18.03;100.00;100693.03;5092014;28;20361;-79
2023/09/10 00:17:56;;;;;;;29.83;20.25;;;;;;;18.03;100.00;100700.97;5092209;28;20036;-80
2023/09/10 00:20:21;;;;;;;27.83;20.48;;;;;;;18.01;100.00;100694.91;5093127;28;20421;-80
2023/09/10 00:22:47;;;;;;;27.05;20.42;;;;;;;18.02;100.00;100700.16;5091996;28;20035;-80
2023/09/10 00:25:13;;;;;;;30.08;22.00;;;;;;;18.01;100.00;100692.81;5092604;28;20432;-81
2023/09/10 00:27:39;;;;;;;31.00;20.88;;;;;;;17.99;100.00;100692.53;5091784;28;20036;-80
2023/09/10 00:30:06;;;;;;;27.92;21.08;;;;;;;17.96;100.00;100695.72;5092782;28;20105;-81
2023/09/10 00:32:33;;;;;;;30.35;21.40;;;;;;;17.94;100.00;100698.34;5093502;28;20027;-80
2023/09/10 00:35:11;;;;;;;29.67;20.40;;;;;;;17.85;100.00;100687.91;5091406;28;20115;-79
2023/09/10 00:37:36;;;;;;;28.98;21.17;;;;;;;17.87;100.00;100702.63;5092680;28;20044;-79
2023/09/10 00:40:12;;;;;;;28.33;20.45;;;;;;;17.78;100.00;100700.81;5092998;28;20537;-79
2023/09/10 00:42:37;;;;;;;30.17;21.20;;;;;;;17.72;100.00;100694.31;5092807;28;20114;-80
2023/09/10 00:45:28;;;;;;;29.25;21.63;;;;;;;17.68;100.00;100690.91;5096651;28;20051;-79
2023/09/10 00:47:54;;;;;;;26.75;20.73;;;;;;;17.58;100.00;100709.09;5108326;28;20434;-81
2023/09/10 00:50:20;;;;;;;30.73;22.70;;;;;;;17.47;100.00;100698.34;5103503;28;20056;-80
2023/09/10 00:52:56;;;;;;;31.25;21.65;;;;;;;17.45;100.00;100703.09;5060545;28;20060;-81
2023/09/10 00:55:32;;;;;;;31.17;21.52;;;;;;;17.38;100.00;100710.97;5076398;28;20101;-81
2023/09/10 00:57:59;;;;;;;30.20;21.55;;;;;;;17.31;100.00;100702.06;5092897;28;20035;-82
2023/09/10 01:00:27;;;;;;;27.88;21.60;;;;;;;17.24;100.00;100702.63;5092596;28;20119;-80
2023/09/10 01:03:02;;;;;;;31.00;21.40;;;;;;;17.28;100.00;100708.91;5075595;28;20028;-80
2023/09/10 01:05:29;;;;;;;27.83;21.40;;;;;;;17.29;100.00;100704.72;5092353;28;20051;-80
2023/09/10 01:07:55;;;;;;;29.98;22.58;;;;;;;17.30;100.00;100703.38;5092181;28;20036;-80
2023/09/10 01:10:23;;;;;;;30.67;21.10;;;;;;;17.30;100.00;100709.94;5092292;28;20032;-81
2023/09/10 01:13:03;;;;;;;33.17;21.23;;;;;;;17.32;100.00;100718.88;5093365;28;20087;-80
2023/09/10 01:15:36;;;;;;;30.10;21.42;;;;;;;17.33;100.00;100711.00;5093266;28;20031;-79
2023/09/10 01:18:26;;;;;;;30.27;21.98;;;;;;;17.31;100.00;100705.75;5092286;28;20035;-79
2023/09/10 01:21:13;;;;;;;27.42;21.55;;;;;;;17.29;100.00;100716.25;5091972;28;20031;-79
2023/09/10 01:23:58;;;;;;;28.30;21.27;;;;;;;17.24;100.00;100717.06;5093357;28;20025;-80
2023/09/10 01:26:23;;;;;;;32.83;22.05;;;;;;;17.20;100.00;100708.66;5093473;28;20055;-81
2023/09/10 01:28:50;;;;;;;28.30;21.95;;;;;;;17.19;100.00;100707.06;5093256;28;20063;-79
2023/09/10 01:31:17;;;;;;;28.52;22.38;;;;;;;17.18;100.00;100716.28;5092105;28;20024;-79
2023/09/10 01:34:04;;;;;;;32.78;23.00;;;;;;;17.20;100.00;100714.44;5092085;28;20047;-79
2023/09/10 01:36:42;;;;;;;31.25;22.85;;;;;;;17.15;100.00;100715.22;5092299;28;20046;-79
2023/09/10 01:39:26;;;;;;;32.78;22.00;;;;;;;17.10;100.00;100713.16;5074991;28;20419;-79
2023/09/10 01:41:53;;;;;;;31.92;22.70;;;;;;;17.02;100.00;100700.56;5093046;28;20020;-78
2023/09/10 01:44:19;;;;;;;30.90;23.65;;;;;;;17.04;100.00;100711.59;5091913;28;20027;-79
2023/09/10 01:46:46;;;;;;;31.98;23.67;;;;;;;17.02;100.00;100720.00;5091832;28;20036;-78
2023/09/10 01:49:15;;;;;;;35.53;24.38;;;;;;;16.98;100.00;100718.19;5092064;28;20024;-78
2023/09/10 01:51:40;;;;;;;32.58;23.67;;;;;;;16.88;100.00;100707.44;5091930;28;20016;-79
2023/09/10 01:54:06;;;;;;;32.05;24.55;;;;;;;16.67;100.00;100686.72;5092443;28;20036;-79
2023/09/10 01:56:33;;;;;;;32.50;22.95;;;;;;;16.86;100.00;100721.59;5097102;28;20480;-78
2023/09/10 01:59:20;;;;;;;30.33;24.13;;;;;;;16.86;100.00;100713.72;5094552;28;20020;-80
2023/09/10 02:01:51;;;;;;;34.03;24.42;;;;;;;16.82;100.00;100716.09;5099997;28;20460;-79
2023/09/10 02:04:18;;;;;;;30.38;24.02;;;;;;;16.80;100.00;100717.91;5115299;28;20049;-79
2023/09/10 02:06:43;;;;;;;37.10;24.35;;;;;;;16.79;100.00;100725.03;5114965;28;20027;-80
2023/09/10 02:09:10;;;;;;;30.27;22.95;;;;;;;16.80;100.00;100720.81;5114987;28;20378;-79
2023/09/10 02:11:37;;;;;;;32.92;24.38;;;;;;;16.79;100.00;100720.06;5115188;28;20020;-79
2023/09/10 02:14:03;;;;;;;31.33;23.80;;;;;;;16.82;100.00;100721.09;5115393;28;20042;-80
2023/09/10 02:16:31;;;;;;;36.65;23.88;;;;;;;16.80;100.00;100712.16;5116432;28;20027;-80
2023/09/10 02:18:59;;;;;;;30.65;24.17;;;;;;;16.73;100.00;100704.81;5115998;28;20024;-79
2023/09/10 02:21:25;;;;;;;35.08;24.45;;;;;;;16.85;100.00;100714.25;5115518;28;20048;-81
2023/09/10 02:23:52;;;;;;;33.58;24.65;;;;;;;16.86;100.00;100710.84;5114734;28;20035;-80
2023/09/10 02:26:25;;;;;;;32.72;23.95;;;;;;;16.85;100.00;100711.34;5114879;28;20040;-80
2023/09/10 02:28:57;;;;;;;35.00;24.70;;;;;;;16.83;100.00;100706.13;5115862;28;20024;-79
2023/09/10 02:31:22;;;;;;;32.85;24.17;;;;;;;16.83;100.00;100705.34;5114351;28;20380;-79
2023/09/10 02:33:49;;;;;;;32.17;23.83;;;;;;;16.66;100.00;100690.13;5114399;28;20468;-80
2023/09/10 02:36:17;;;;;;;35.22;25.35;;;;;;;16.76;100.00;100709.53;5115679;28;20058;-80
2023/09/10 02:38:51;;;;;;;34.42;25.75;;;;;;;16.73;100.00;100704.81;5116368;28;20030;-80
2023/09/10 02:41:18;;;;;;;35.95;25.40;;;;;;;16.71;100.00;100704.56;5117301;28;20064;-81
2023/09/10 02:43:43;;;;;;;35.00;25.83;;;;;;;16.66;100.00;100714.00;5116546;28;20043;-80
2023/09/10 02:46:09;;;;;;;34.67;26.20;;;;;;;16.61;100.00;100719.78;5116449;27;20035;-80
2023/09/10 02:48:34;;;;;;;32.15;26.20;;;;;;;16.53;100.00;100702.19;5115289;28;20062;-79
2023/09/10 02:51:04;;;;;;;36.40;26.33;;;;;;;16.58;100.00;100712.97;5116519;28;20444;-79
2023/09/10 02:53:30;;;;;;;35.42;25.75;;;;;;;16.54;100.00;100718.22;5116581;28;20030;-79
2023/09/10 02:56:08;;;;;;;41.15;26.60;;;;;;;16.52;100.00;100717.91;5116560;28;20016;-80
2023/09/10 02:58:34;;;;;;;33.00;26.05;;;;;;;16.48;100.00;100714.50;5116384;28;20024;-79
2023/09/10 03:01:04;;;;;;;35.17;25.70;;;;;;;16.46;100.00;100715.03;5116078;28;20030;-80
2023/09/10 03:03:33;;;;;;;34.60;25.02;;;;;;;16.42;100.00;100720.28;5114732;28;20487;-79
2023/09/10 03:06:00;;;;;;;37.40;25.30;;;;;;;16.37;100.00;100718.19;5114770;28;20491;-79
2023/09/10 03:08:27;;;;;;;36.70;26.90;;;;;;;16.23;100.00;100715.53;5114975;28;20430;-83
2023/09/10 03:10:53;;;;;;;36.95;28.13;;;;;;;16.23;100.00;100709.78;5114851;28;20024;-79
2023/09/10 03:13:19;;;;;;;39.28;27.50;;;;;;;16.19;100.00;100715.03;5097568;28;20070;-80
2023/09/10 03:15:48;;;;;;;38.95;26.50;;;;;;;16.18;100.00;100717.13;5114527;28;20468;-79
2023/09/10 03:18:14;;;;;;;41.67;27.42;;;;;;;16.16;100.00;100704.50;5115543;28;20032;-79
2023/09/10 03:20:42;;;;;;;38.75;26.40;;;;;;;16.13;100.00;100707.16;5116230;28;20019;-78
2023/09/10 03:23:18;;;;;;;38.10;27.23;;;;;;;16.19;100.00;100704.28;5115900;28;20027;-78
2023/09/10 03:25:44;;;;;;;37.83;27.55;;;;;;;16.20;100.00;100697.19;5114490;28;20463;-80
2023/09/10 03:28:11;;;;;;;36.63;26.42;;;;;;;16.20;100.00;100690.66;5115556;28;20102;-79
2023/09/10 03:30:36;;;;;;;40.40;27.15;;;;;;;16.19;100.00;100677.53;5114088;28;20054;-78
2023/09/10 03:33:03;;;;;;;36.65;26.52;;;;;;;16.24;100.00;100683.31;5115233;28;20464;-79
2023/09/10 03:35:29;;;;;;;41.08;27.77;;;;;;;16.28;100.00;100683.03;5115554;28;20019;-79
2023/09/10 03:37:54;;;;;;;35.42;26.33;;;;;;;16.27;100.00;100672.81;5115216;28;20414;-79
2023/09/10 03:40:20;;;;;;;35.83;25.08;;;;;;;16.36;100.00;100675.44;5114005;28;20027;-78
2023/09/10 03:42:48;;;;;;;36.13;27.27;;;;;;;16.37;100.00;100671.22;5113347;28;20040;-79
2023/09/10 03:45:15;;;;;;;34.13;25.50;;;;;;;16.34;100.00;100664.44;5115112;28;20047;-79
2023/09/10 03:47:40;;;;;;;38.05;27.58;;;;;;;16.27;100.00;100655.50;5115360;28;20032;-78
2023/09/10 03:50:10;;;;;;;39.50;27.25;;;;;;;16.32;100.00;100667.03;5115287;28;20047;-79
2023/09/10 03:52:37;;;;;;;37.67;26.80;;;;;;;16.27;100.00;100661.28;5115244;28;20031;-78
2023/09/10 03:55:05;;;;;;;36.90;25.83;;;;;;;16.18;100.00;100653.66;5113700;28;20047;-79
2023/09/10 03:57:31;;;;;;;40.28;26.88;;;;;;;16.20;100.00;100667.56;5096550;28;20070;-78
2023/09/10 03:59:57;;;;;;;33.47;26.17;;;;;;;16.19;100.00;100660.22;5114984;28;20042;-79
2023/09/10 04:02:24;;;;;;;37.17;26.38;;;;;;;16.20;100.00;100668.38;5113608;28;20058;-80
2023/09/10 04:04:51;;;;;;;37.75;26.30;;;;;;;16.20;100.00;100659.72;5113588;28;20035;-79
2023/09/10 04:07:19;;;;;;;35.13;26.95;;;;;;;16.19;100.00;100660.22;5113250;28;20387;-79
2023/09/10 04:09:45;;;;;;;40.40;27.33;;;;;;;16.17;100.00;100657.06;5114923;28;20023;-79
2023/09/10 04:12:10;;;;;;;43.22;26.85;;;;;;;16.14;100.00;100650.28;5114567;28;20436;-79
2023/09/10 04:14:37;;;;;;;36.20;27.02;;;;;;;16.13;100.00;100655.25;5114547;28;20031;-80
2023/09/10 04:17:14;;;;;;;35.95;27.80;;;;;;;16.10;100.00;100652.63;5114322;28;20055;-78
2023/09/10 04:19:42;;;;;;;39.45;26.63;;;;;;;16.03;100.00;100651.03;5096501;28;20118;-80
2023/09/10 04:22:07;;;;;;;33.80;26.17;;;;;;;16.02;100.00;100655.22;5113601;28;20055;-78
2023/09/10 04:24:33;;;;;;;40.38;27.58;;;;;;;15.98;100.00;100665.44;5114339;28;20059;-79
2023/09/10 04:27:01;;;;;;;38.85;27.70;;;;;;;15.93;100.00;100660.47;5113082;28;20039;-79
2023/09/10 04:29:34;;;;;;;39.95;28.90;;;;;;;15.88;100.00;100667.00;5113518;28;20045;-80
2023/09/10 04:32:01;;;;;;;37.90;28.30;;;;;;;15.84;100.00;100675.13;5114344;28;20410;-79
2023/09/10 04:34:28;;;;;;;40.95;28.85;;;;;;;15.84;100.00;100675.13;5114255;28;20030;-80
2023/09/10 04:36:54;;;;;;;42.35;28.40;;;;;;;15.82;100.00;100683.50;5113205;28;20081;-80
2023/09/10 04:39:22;;;;;;;39.28;27.77;;;;;;;15.85;100.00;100680.38;5113198;28;20059;-81
2023/09/10 04:41:49;;;;;;;42.80;29.40;;;;;;;15.84;100.00;100667.28;5095539;28;20037;-78
2023/09/10 04:44:23;;;;;;;38.78;28.42;;;;;;;15.98;100.00;100688.50;5114354;28;20032;-79
2023/09/10 04:46:54;;;;;;;40.58;28.45;;;;;;;16.01;100.00;100684.56;5112878;28;20474;-78
2023/09/10 04:49:21;;;;;;;42.50;28.95;;;;;;;16.08;100.00;100684.06;5112972;28;20027;-80
2023/09/10 04:51:47;;;;;;;39.10;27.85;;;;;;;16.13;100.00;100684.06;5114419;28;20027;-80
2023/09/10 04:54:13;;;;;;;36.92;27.08;;;;;;;16.05;100.00;100665.72;5114191;28;20107;-80
2023/09/10 04:56:40;;;;;;;34.08;26.77;;;;;;;16.25;100.00;100686.97;5116150;28;20059;-79
2023/09/10 04:59:05;;;;;;;38.70;26.85;;;;;;;16.36;100.00;100684.88;5117322;28;20432;-80
2023/09/10 05:01:33;;;;;;;38.60;26.95;;;;;;;16.40;100.00;100682.50;5115354;28;20031;-80
2023/09/10 05:04:13;;;;;;;33.92;24.67;;;;;;;16.56;100.00;100680.97;5113776;28;20484;-80
2023/09/10 05:06:39;;;;;;;36.92;26.48;;;;;;;16.60;100.00;100681.47;5113852;28;20055;-80
2023/09/10 05:09:08;;;;;;;39.05;26.58;;;;;;;16.59;100.00;100667.59;5114166;28;20098;-78
2023/09/10 05:11:33;;;;;;;35.95;25.38;;;;;;;16.65;100.00;100672.03;5112665;28;20023;-78
2023/09/10 05:13:59;;;;;;;35.47;25.52;;;;;;;16.62;100.00;100657.88;5095506;28;20041;-80
2023/09/10 05:16:33;;;;;;;34.90;25.58;;;;;;;16.73;100.00;100673.09;5078886;28;20410;-79
2023/09/10 05:19:01;;;;;;;34.03;25.52;;;;;;;16.77;100.00;100682.25;5095856;28;20050;-79
2023/09/10 05:21:27;;;;;;;32.28;24.58;;;;;;;16.81;100.00;100671.22;5113967;28;20448;-79
2023/09/10 05:23:52;;;;;;;35.55;23.95;;;;;;;16.81;100.00;100668.34;5112721;28;20027;-80
2023/09/10 05:26:19;;;;;;;35.47;25.10;;;;;;;16.90;100.00;100679.59;5113963;28;20046;-79
2023/09/10 05:28:47;;;;;;;32.90;24.95;;;;;;;16.90;100.00;100682.47;5112547;28;20043;-80
2023/09/10 05:31:13;;;;;;;33.90;24.60;;;;;;;16.95;100.00;100675.13;5117816;28;20429;-80
2023/09/10 05:33:40;;;;;;;31.90;23.65;;;;;;;16.98;100.00;100677.75;5118106;28;20066;-80
2023/09/10 05:36:06;;;;;;;33.67;24.85;;;;;;;16.98;100.00;100683.53;5118031;28;20063;-79
2023/09/10 05:38:33;;;;;;;35.85;23.58;;;;;;;16.98;100.00;100683.53;5117793;28;20031;-80
2023/09/10 05:41:02;;;;;;;34.30;24.90;;;;;;;16.97;100.00;100673.28;5117986;27;20069;-79
2023/09/10 05:43:29;;;;;;;35.25;24.30;;;;;;;16.97;100.00;100669.59;5099288;28;20054;-79
2023/09/10 05:46:01;;;;;;;30.50;23.55;;;;;;;17.14;100.00;100681.13;5117615;28;20020;-81
2023/09/10 05:48:27;;;;;;;30.15;23.90;;;;;;;17.21;100.00;100681.34;5117692;28;20084;-79
2023/09/10 05:50:57;;;;;;;30.05;21.70;;;;;;;17.23;100.00;100669.28;5116230;28;20111;-78
2023/09/10 05:53:24;;;;;;;26.83;21.08;;;;;;;17.36;100.00;100678.94;5116804;28;20023;-79
2023/09/10 05:55:50;;;;;;;32.45;22.27;;;;;;;17.46;100.00;100672.88;5099529;28;20023;-79
2023/09/10 05:58:16;;;;;;;28.83;20.73;;;;;;;17.46;100.00;100667.88;5117491;28;20028;-78
2023/09/10 06:00:42;;;;;;;31.55;21.48;;;;;;;17.64;100.00;100681.72;5115041;28;20081;-79
2023/09/10 06:03:09;;;;;;;27.88;20.75;;;;;;;17.72;100.00;100685.63;5116575;28;20031;-78
2023/09/10 06:05:36;;;;;;;27.90;20.85;;;;;;;17.68;100.00;100664.09;5116120;28;20409;-78
2023/09/10 06:08:03;;;;;;;25.45;19.98;;;;;;;17.91;100.00;100679.19;5117607;28;20028;-74
2023/09/10 06:10:37;;;;;;;25.17;19.95;;;;;;;18.04;100.00;100685.16;5117297;28;20072;-75
2023/09/10 06:13:04;;;;;;;25.02;19.05;;;;;;;18.19;100.00;100685.56;5115964;28;20356;-74
2023/09/10 06:15:31;;;;;;;18.13;14.93;;;;;;;18.45;100.00;100683.03;5115578;28;20030;-75
2023/09/10 06:17:58;;;;;;;18.80;13.68;;;;;;;19.16;100.00;100691.59;5117259;28;20028;-76
2023/09/10 06:20:24;;;;;;;16.33;13.52;;;;;;;20.15;100.00;100687.91;5115623;28;20062;-75
2023/09/10 06:22:52;;;;;;;14.38;12.48;;;;;;;21.23;100.00;100672.53;5117107;28;20023;-76
2023/09/10 06:25:33;;;;;;;19.90;12.35;;;;;;;22.57;100.00;100669.53;5113981;28;20028;-78
2023/09/10 06:28:00;;;;;;;16.42;13.13;;;;;;;23.63;100.00;100661.53;5104732;28;20099;-77
2023/09/10 06:30:27;;;;;;;14.13;12.13;;;;;;;24.56;100.00;100638.63;5103618;28;20060;-77
2023/09/10 06:32:53;;;;;;;14.45;12.18;;;;;;;25.42;100.00;100628.59;5098684;28;20047;-77
2023/09/10 06:35:19;;;;;;;14.77;11.55;;;;;;;26.30;100.00;100623.47;5088580;28;20028;-75
2023/09/10 06:37:47;;;;;;;17.15;12.95;;;;;;;27.04;100.00;100605.06;5096162;28;20036;-77
2023/09/10 06:40:13;;;;;;;13.40;11.57;;;;;;;27.82;100.00;100606.47;5106542;28;20050;-76
2023/09/10 06:42:43;;;;;;;13.95;11.10;;;;;;;28.55;100.00;100601.50;5105941;28;20503;-75
2023/09/10 06:45:10;;;;;;;11.98;10.02;;;;;;;29.28;100.00;100608.00;5095685;28;20365;-77
2023/09/10 06:47:36;;;;;;;16.33;10.68;;;;;;;30.05;100.00;100601.28;5096092;28;20028;-76
2023/09/10 06:50:03;;;;;;;12.25;9.75;;;;;;;30.65;100.00;100613.06;5095887;28;20158;-74
2023/09/10 06:52:30;;;;;;;11.02;9.85;;;;;;;31.04;100.00;100608.47;5095634;28;20024;-75
2023/09/10 06:55:04;;;;;;;13.38;9.95;;;;;;;31.56;99.48;100607.59;5114590;28;20046;-76
2023/09/10 06:57:31;;;;;;;12.15;9.00;;;;;;;31.80;95.71;100613.00;5097861;28;20422;-75
2023/09/10 06:59:57;;;;;;;11.77;9.07;;;;;;;32.33;96.26;100618.69;5097610;28;20027;-75
2023/09/10 07:02:25;;;;;;;10.07;8.30;;;;;;;32.61;84.32;100605.69;5115986;28;20030;-75
2023/09/10 07:04:52;;;;;;;11.40;8.32;;;;;;;33.01;87.44;100611.22;5114949;28;20032;-74
2023/09/10 07:07:18;;;;;;;10.60;8.32;;;;;;;33.07;83.81;100605.69;5115692;28;20019;-76
2023/09/10 07:09:45;;;;;;;9.80;8.63;;;;;;;33.34;81.95;100608.09;5116239;28;20027;-76
2023/09/10 07:12:12;;;;;;;10.40;8.63;;;;;;;33.72;76.93;100614.81;5115911;28;20043;-76
2023/09/10 07:14:39;;;;;;;10.38;8.52;;;;;;;33.77;72.59;100613.63;5097503;28;20030;-79
2023/09/10 07:17:05;;;;;;;8.85;7.90;;;;;;;34.13;79.47;100611.97;5115789;28;20042;-76
2023/09/10 07:19:33;;;;;;;8.90;7.75;;;;;;;34.26;66.40;100606.13;5114377;28;20173;-77
2023/09/10 07:21:59;;;;;;;11.98;7.88;;;;;;;34.44;75.97;100615.28;5114227;28;20027;-77
2023/09/10 07:24:29;;;;;;;13.15;8.63;;;;;;;34.92;74.18;100610.50;5115418;28;20043;-74
2023/09/10 07:26:55;;;;;;;9.07;7.55;;;;;;;35.27;73.72;100610.91;5097565;28;20024;-75
2023/09/10 07:29:22;;;;;;;9.55;7.88;;;;;;;35.36;70.95;100609.13;5115748;28;20024;-75
2023/09/10 07:31:48;;;;;;;10.45;8.43;;;;;;;35.44;63.00;100607.38;5096951;28;20122;-74
2023/09/10 07:34:13;;;;;;;9.45;7.60;;;;;;;35.46;69.28;100606.69;5114871;28;20046;-74
2023/09/10 07:36:43;;;;;;;8.52;6.97;;;;;;;35.46;68.26;100607.47;5115140;28;20023;-74
2023/09/10 07:39:11;;;;;;;7.43;6.60;;;;;;;35.29;68.53;100602.13;5097089;28;20114;-74
2023/09/10 07:41:36;;;;;;;9.35;7.18;;;;;;;35.71;71.64;100603.56;5097576;28;20031;-74
2023/09/10 07:44:03;;;;;;;7.53;6.70;;;;;;;36.09;70.86;100598.03;5114876;28;20043;-75
2023/09/10 07:46:43;;;;;;;7.38;6.65;;;;;;;36.59;64.02;100599.69;5110276;28;20032;-75
2023/09/10 07:49:09;;;;;;;11.30;6.45;;;;;;;36.81;58.52;100603.72;5094685;28;20039;-76
2023/09/10 07:51:36;;;;;;;8.45;6.18;;;;;;;36.91;62.26;100597.47;5094138;28;20025;-74
2023/09/10 07:54:01;;;;;;;7.35;5.65;;;;;;;37.18;60.16;100603.16;5076288;28;20060;-75
2023/09/10 07:56:31;;;;;;;8.65;6.43;;;;;;;37.29;57.36;100591.00;5093801;28;20083;-74
2023/09/10 07:58:58;;;;;;;6.38;5.78;;;;;;;37.28;57.49;100591.69;5076575;28;20036;-75
2023/09/10 08:01:25;;;;;;;9.77;5.80;;;;;;;37.14;56.56;100591.06;5093241;28;20185;-76
2023/09/10 08:03:52;;;;;;;7.72;6.47;;;;;;;36.94;54.88;100593.13;5094364;28;20040;-78
2023/09/10 08:06:20;;;;;;;6.63;5.78;;;;;;;36.27;54.51;100587.00;5094565;28;20055;-75
2023/09/10 08:08:47;;;;;;;7.32;6.13;;;;;;;36.11;56.52;100595.91;5093181;28;20377;-76
2023/09/10 08:11:15;;;;;;;6.68;5.60;;;;;;;36.06;57.56;100594.16;5094409;28;20031;-76
2023/09/10 08:13:42;;;;;;;6.78;5.50;;;;;;;36.01;57.54;100595.41;5092962;28;20024;-76
2023/09/10 08:16:13;;;;;;;6.70;5.57;;;;;;;35.98;63.12;100569.94;5094125;28;20051;-73
2023/09/10 08:18:41;;;;;;;8.10;5.80;;;;;;;36.02;59.69;100585.03;5094137;28;20024;-77
2023/09/10 08:21:07;;;;;;;8.50;5.82;;;;;;;36.18;60.90;100570.94;5093354;28;20034;-76
2023/09/10 08:23:34;;;;;;;8.80;5.85;;;;;;;36.52;57.54;100571.06;5092490;28;20046;-76
2023/09/10 08:26:02;;;;;;;6.97;5.18;;;;;;;36.59;55.53;100567.69;5094218;28;20440;-73
2023/09/10 08:28:28;;;;;;;10.35;5.78;;;;;;;36.54;60.43;100565.19;5092724;28;20032;-80
2023/09/10 08:30:54;;;;;;;8.85;5.32;;;;;;;36.57;53.41;100569.81;5093927;28;20446;-77
2023/09/10 08:33:21;;;;;;;8.73;5.72;;;;;;;36.39;54.63;100569.69;5093933;28;20032;-74
2023/09/10 08:35:55;;;;;;;7.65;5.40;;;;;;;36.37;56.79;100563.66;5094083;28;20469;-77
2023/09/10 08:38:21;;;;;;;7.25;5.65;;;;;;;36.31;55.14;100564.13;5099938;28;20039;-75
2023/09/10 08:40:58;;;;;;;8.23;4.93;;;;;;;36.30;61.12;100561.81;5114048;28;20027;-75
2023/09/10 08:43:56;;;;;;;8.50;5.70;;;;;;;36.41;55.12;100558.66;5113967;28;20056;-77
2023/09/10 08:46:29;;;;;;;7.30;5.55;;;;;;;36.42;57.55;100559.44;5109325;28;20039;-77
2023/09/10 08:48:56;;;;;;;5.35;4.90;;;;;;;36.53;58.00;100560.69;5096696;28;20088;-77
2023/09/10 08:51:23;;;;;;;9.02;5.53;;;;;;;36.59;56.54;100558.75;5112490;28;20039;-75
2023/09/10 08:53:52;;;;;;;5.15;4.65;;;;;;;36.64;54.91;100568.63;5109671;27;20043;-75
2023/09/10 08:56:25;;;;;;;6.88;5.60;;;;;;;36.49;54.22;100561.25;5101390;28;20038;-75
2023/09/10 08:58:51;;;;;;;7.13;4.95;;;;;;;36.06;54.48;100543.56;5097171;28;20396;-75
2023/09/10 09:01:19;;;;;;;7.43;5.30;;;;;;;36.06;59.07;100528.69;5105516;28;20019;-74
2023/09/10 09:03:46;;;;;;;7.85;4.88;;;;;;;36.37;56.90;100554.72;5103538;28;20039;-73
2023/09/10 09:06:12;;;;;;;6.70;5.03;;;;;;;36.38;56.84;100556.25;5103711;28;20370;-77
2023/09/10 09:08:40;;;;;;;7.45;5.35;;;;;;;36.22;53.88;100555.47;5107390;27;20510;-76
2023/09/10 09:11:07;;;;;;;5.25;4.75;;;;;;;36.12;54.43;100552.78;5112322;28;20032;-79
2023/09/10 09:13:35;;;;;;;9.13;5.53;;;;;;;36.09;56.28;100554.13;5110910;28;20286;-80
2023/09/10 09:16:03;;;;;;;5.22;4.75;;;;;;;36.10;54.80;100557.88;5115659;28;20049;-81
2023/09/10 09:18:29;;;;;;;7.18;5.50;;;;;;;36.17;56.24;100554.53;5114911;27;20039;-78
2023/09/10 09:20:59;;;;;;;33.10;15.98;;;;;;;36.13;59.32;100547.63;5114809;28;20022;-80
2023/09/10 09:23:29;;;;;;;47.72;20.40;;;;;;;35.64;64.84;100559.31;5095579;28;20047;-78
2023/09/10 09:26:01;;;;;;;37.03;16.63;;;;;;;35.14;64.07;100555.25;5112479;28;20468;-78
2023/09/10 09:28:29;;;;;;;6.53;4.60;;;;;;;35.10;60.29;100549.84;5115089;27;20035;-80
2023/09/10 09:30:56;;;;;;;34.17;14.07;;;;;;;35.23;62.88;100551.25;5117124;28;20034;-78
2023/09/10 09:33:22;;;;;;;32.78;15.43;;;;;;;35.32;62.42;100549.47;5117300;27;20036;-81
2023/09/10 09:35:48;;;;;;;7.13;4.65;;;;;;;35.30;61.58;100553.09;5095749;28;20370;-79
2023/09/10 09:38:17;;;;;;;42.55;18.95;;;;;;;35.25;61.15;100550.63;5092137;28;20093;-76
2023/09/10 09:40:44;;;;;;;38.97;17.38;;;;;;;34.79;63.10;100546.69;5074604;28;20028;-74
2023/09/10 09:43:11;;;;;;;35.28;12.80;;;;;;;34.53;62.91;100548.97;5091417;28;20056;-76
2023/09/10 09:45:39;;;;;;;7.78;4.68;;;;;;;34.41;59.66;100548.31;5092432;28;20035;-76
2023/09/10 09:48:06;;;;;;;9.02;5.03;;;;;;;34.41;53.55;100548.31;5091028;28;20382;-75
2023/09/10 09:50:32;;;;;;;4.57;4.07;;;;;;;34.29;53.31;100548.41;5092904;28;20031;-76
2023/09/10 09:52:58;;;;;;;7.57;4.82;;;;;;;34.25;52.71;100535.56;5093507;28;20028;-75
2023/09/10 09:55:24;;;;;;;6.95;4.22;;;;;;;34.24;50.37;100534.00;5101028;28;20071;-74
2023/09/10 09:57:51;;;;;;;8.50;4.80;;;;;;;34.09;50.83;100529.44;5090686;28;20098;-76
2023/09/10 10:00:19;;;;;;;8.23;5.03;;;;;;;33.96;49.08;100529.44;5092548;28;20081;-73
2023/09/10 10:02:52;;;;;;;9.32;5.63;;;;;;;33.62;53.06;100531.94;5100975;28;20037;-75
2023/09/10 10:05:21;;;;;;;9.18;5.38;;;;;;;33.10;53.33;100527.38;5093586;28;20042;-75
2023/09/10 10:07:52;;;;;;;6.30;5.13;;;;;;;32.17;57.49;100526.69;5111997;28;20036;-77
2023/09/10 10:10:20;;;;;;;9.90;4.35;;;;;;;31.63;60.69;100527.59;5110819;28;20043;-77
2023/09/10 10:12:46;;;;;;;7.70;4.32;;;;;;;31.59;62.11;100505.88;5111682;28;20032;-76
2023/09/10 10:15:14;;;;;;;6.50;4.22;;;;;;;31.92;59.91;100514.69;5111090;28;20035;-79
2023/09/10 10:17:43;;;;;;;5.32;4.35;;;;;;;31.84;61.08;100523.81;5100225;28;20229;-76
2023/09/10 10:20:15;;;;;;;5.88;3.80;;;;;;;31.09;63.93;100515.81;5106269;28;20480;-77
2023/09/10 10:22:43;;;;;;;6.70;4.43;;;;;;;31.19;63.20;100522.44;5096222;28;20461;-75
2023/09/10 10:25:11;;;;;;;5.00;4.10;;;;;;;31.34;55.37;100519.03;5094778;28;20389;-75
2023/09/10 10:27:37;;;;;;;5.47;4.18;;;;;;;31.56;58.54;100516.00;5095134;28;20036;-76
2023/09/10 10:30:05;;;;;;;8.93;4.43;;;;;;;31.68;57.46;100499.88;5095371;28;20020;-79
2023/09/10 10:32:39;;;;;;;4.60;3.88;;;;;;;31.87;55.76;100510.69;5078194;28;20046;-76
2023/09/10 10:35:06;;;;;;;7.93;3.80;;;;;;;31.81;59.41;100505.16;5096447;28;20035;-78
2023/09/10 10:37:49;;;;;;;5.25;3.90;;;;;;;31.71;49.35;100497.81;5095129;28;20381;-78
2023/09/10 10:40:41;;;;;;;5.38;3.78;;;;;;;31.75;54.25;100486.25;5094875;28;20028;-76
2023/09/10 10:43:20;;;;;;;11.07;3.95;;;;;;;31.79;52.57;100493.22;5094451;28;20143;-76
2023/09/10 10:45:47;;;;;;;8.68;3.75;;;;;;;31.83;54.82;100495.66;5094819;28;20024;-78
2023/09/10 10:48:17;;;;;;;4.78;4.28;;;;;;;31.75;54.20;100492.16;5094540;28;20461;-75
2023/09/10 10:50:45;;;;;;;5.75;4.20;;;;;;;31.54;52.79;100495.97;5094400;28;20048;-77
2023/09/10 10:53:26;;;;;;;7.40;3.80;;;;;;;31.31;60.58;100493.69;5077858;28;20044;-76
2023/09/10 10:56:03;;;;;;;6.38;4.20;;;;;;;31.13;59.43;100483.59;5094575;28;20058;-78
2023/09/10 10:58:30;;;;;;;5.82;3.80;;;;;;;30.84;66.63;100483.06;5095763;28;20030;-75
2023/09/10 11:01:04;;;;;;;5.10;4.00;;;;;;;30.84;65.02;100488.97;5094640;28;20130;-76
2023/09/10 11:03:31;;;;;;;6.90;4.10;;;;;;;30.71;62.56;100457.84;5095811;28;20028;-77
2023/09/10 11:06:08;;;;;;;5.97;4.40;;;;;;;30.70;66.77;100485.06;5094343;28;20031;-75
2023/09/10 11:08:39;;;;;;;5.38;4.20;;;;;;;30.62;64.94;100482.25;5095769;28;20024;-83
2023/09/10 11:11:08;;;;;;;7.43;4.00;;;;;;;30.67;64.06;100483.34;5095670;28;20111;-81
2023/09/10 11:14:01;;;;;;;7.18;3.90;;;;;;;30.73;65.31;100483.78;5095985;28;20464;-83
2023/09/10 11:16:33;;;;;;;8.73;4.22;;;;;;;30.69;61.06;100480.53;5095591;28;20422;-79